sensor_id;sensor_type;location;lat;lon;timestamp;pressure;altitude;pressure_sealevel;temperature;humidity
74915;BME280;63475;45.140;-75.616;2023-07-13T00:01:34;100246.22;;;26.52;46.48
74915;BME280;63475;45.140;-75.616;2023-07-13T00:03:38;100242.09;;;26.42;46.87
74915;BME280;63475;45.140;-75.616;2023-07-13T00:05:44;100245.91;;;26.35;46.75
74915;BME280;63475;45.140;-75.616;2023-07-13T00:07:48;100244.31;;;26.27;47.60
74915;BME280;63475;45.140;-75.616;2023-07-13T00:09:50;100245.38;;;26.20;47.99
74915;BME280;63475;45.140;-75.616;2023-07-13T00:11:55;100247.75;;;26.10;48.17
74915;BME280;63475;45.140;-75.616;2023-07-13T00:13:58;100240.00;;;26.00;48.20
74915;BME280;63475;45.140;-75.616;2023-07-13T00:16:01;100238.75;;;25.96;48.73
74915;BME280;63475;45.140;-75.616;2023-07-13T00:18:05;100247.81;;;25.90;48.49
74915;BME280;63475;45.140;-75.616;2023-07-13T00:20:09;100248.09;;;25.82;47.79
74915;BME280;63475;45.140;-75.616;2023-07-13T00:22:12;100251.06;;;25.73;47.92
74915;BME280;63475;45.140;-75.616;2023-07-13T00:24:18;100243.31;;;25.64;48.26
74915;BME280;63475;45.140;-75.616;2023-07-13T00:26:26;100246.50;;;25.54;48.82
74915;BME280;63475;45.140;-75.616;2023-07-13T00:28:28;100245.69;;;25.47;48.33
74915;BME280;63475;45.140;-75.616;2023-07-13T00:30:31;100246.72;;;25.39;48.20
74915;BME280;63475;45.140;-75.616;2023-07-13T00:32:34;100249.91;;;25.30;48.02
74915;BME280;63475;45.140;-75.616;2023-07-13T00:34:38;100256.41;;;25.22;47.97
74915;BME280;63475;45.140;-75.616;2023-07-13T00:36:41;100255.81;;;25.14;48.08
74915;BME280;63475;45.140;-75.616;2023-07-13T00:38:43;100253.31;;;25.05;48.43
74915;BME280;63475;45.140;-75.616;2023-07-13T00:40:46;100254.34;;;24.98;48.51
74915;BME280;63475;45.140;-75.616;2023-07-13T00:42:52;100252.69;;;24.90;48.98
74915;BME280;63475;45.140;-75.616;2023-07-13T00:47:13;100248.03;;;24.71;49.25
74915;BME280;63475;45.140;-75.616;2023-07-13T00:49:20;100248.25;;;24.63;49.63
74915;BME280;63475;45.140;-75.616;2023-07-13T00:51:56;100260.19;;;24.55;49.57
74915;BME280;63475;45.140;-75.616;2023-07-13T00:54:02;100262.91;;;24.49;49.47
74915;BME280;63475;45.140;-75.616;2023-07-13T00:56:06;100270.25;;;24.42;49.74
74915;BME280;63475;45.140;-75.616;2023-07-13T00:58:09;100269.81;;;24.31;49.86
74915;BME280;63475;45.140;-75.616;2023-07-13T01:00:12;100268.97;;;24.24;49.87
74915;BME280;63475;45.140;-75.616;2023-07-13T01:02:16;100266.41;;;24.16;49.71
74915;BME280;63475;45.140;-75.616;2023-07-13T01:04:19;100261.94;;;24.09;50.12
74915;BME280;63475;45.140;-75.616;2023-07-13T01:06:21;100257.34;;;24.02;50.20
74915;BME280;63475;45.140;-75.616;2023-07-13T01:08:24;100262.75;;;23.96;51.40
74915;BME280;63475;45.140;-75.616;2023-07-13T01:10:27;100256.84;;;23.86;50.85
74915;BME280;63475;45.140;-75.616;2023-07-13T01:12:30;100245.72;;;23.81;50.72
74915;BME280;63475;45.140;-75.616;2023-07-13T01:14:33;100251.16;;;23.74;51.24
74915;BME280;63475;45.140;-75.616;2023-07-13T01:16:36;100249.03;;;23.69;51.94
74915;BME280;63475;45.140;-75.616;2023-07-13T01:18:39;100243.75;;;23.61;51.93
74915;BME280;63475;45.140;-75.616;2023-07-13T01:20:51;100241.00;;;23.55;51.65
74915;BME280;63475;45.140;-75.616;2023-07-13T01:22:54;100248.94;;;23.50;51.76
74915;BME280;63475;45.140;-75.616;2023-07-13T01:24:56;100243.41;;;23.43;51.86
74915;BME280;63475;45.140;-75.616;2023-07-13T01:26:59;100248.63;;;23.38;51.64
74915;BME280;63475;45.140;-75.616;2023-07-13T01:29:01;100250.47;;;23.31;51.37
74915;BME280;63475;45.140;-75.616;2023-07-13T01:31:05;100260.09;;;23.27;51.18
74915;BME280;63475;45.140;-75.616;2023-07-13T01:33:08;100260.88;;;23.21;51.13
74915;BME280;63475;45.140;-75.616;2023-07-13T01:35:11;100275.28;;;23.15;50.82
74915;BME280;63475;45.140;-75.616;2023-07-13T01:37:14;100272.53;;;23.08;50.67
74915;BME280;63475;45.140;-75.616;2023-07-13T01:39:17;100268.72;;;23.02;50.56
74915;BME280;63475;45.140;-75.616;2023-07-13T01:41:19;100260.69;;;22.94;50.65
74915;BME280;63475;45.140;-75.616;2023-07-13T01:43:22;100267.97;;;22.87;50.74
74915;BME280;63475;45.140;-75.616;2023-07-13T01:45:25;100271.47;;;22.81;50.31
74915;BME280;63475;45.140;-75.616;2023-07-13T01:47:27;100278.53;;;22.76;50.58
74915;BME280;63475;45.140;-75.616;2023-07-13T01:49:31;100283.88;;;22.69;50.89
74915;BME280;63475;45.140;-75.616;2023-07-13T01:51:33;100283.63;;;22.64;50.57
74915;BME280;63475;45.140;-75.616;2023-07-13T01:53:36;100279.81;;;22.58;50.62
74915;BME280;63475;45.140;-75.616;2023-07-13T01:55:39;100277.84;;;22.52;50.74
74915;BME280;63475;45.140;-75.616;2023-07-13T01:57:41;100275.72;;;22.48;51.01
74915;BME280;63475;45.140;-75.616;2023-07-13T01:59:44;100272.31;;;22.39;50.95
74915;BME280;63475;45.140;-75.616;2023-07-13T02:01:46;100282.72;;;22.35;50.84
74915;BME280;63475;45.140;-75.616;2023-07-13T02:03:50;100281.59;;;22.30;51.03
74915;BME280;63475;45.140;-75.616;2023-07-13T02:05:53;100285.09;;;22.24;51.32
74915;BME280;63475;45.140;-75.616;2023-07-13T02:07:56;100273.97;;;22.19;51.27
74915;BME280;63475;45.140;-75.616;2023-07-13T02:09:59;100272.84;;;22.13;51.28
74915;BME280;63475;45.140;-75.616;2023-07-13T02:12:02;100273.63;;;22.07;51.41
74915;BME280;63475;45.140;-75.616;2023-07-13T02:14:05;100272.31;;;22.03;51.04
74915;BME280;63475;45.140;-75.616;2023-07-13T02:16:07;100274.75;;;21.98;51.24
74915;BME280;63475;45.140;-75.616;2023-07-13T02:18:10;100270.06;;;21.92;51.48
74915;BME280;63475;45.140;-75.616;2023-07-13T02:20:13;100263.34;;;21.88;51.59
74915;BME280;63475;45.140;-75.616;2023-07-13T02:22:15;100272.03;;;21.83;51.52
74915;BME280;63475;45.140;-75.616;2023-07-13T02:24:18;100266.16;;;21.80;51.81
74915;BME280;63475;45.140;-75.616;2023-07-13T02:26:23;100276.56;;;21.76;51.84
74915;BME280;63475;45.140;-75.616;2023-07-13T02:28:26;100265.25;;;21.73;52.03
74915;BME280;63475;45.140;-75.616;2023-07-13T02:30:28;100269.34;;;21.68;52.25
74915;BME280;63475;45.140;-75.616;2023-07-13T02:32:31;100269.72;;;21.65;52.39
74915;BME280;63475;45.140;-75.616;2023-07-13T02:34:35;100270.09;;;21.62;52.55
74915;BME280;63475;45.140;-75.616;2023-07-13T02:36:37;100279.66;;;21.58;52.82
74915;BME280;63475;45.140;-75.616;2023-07-13T02:38:40;100269.16;;;21.55;52.91
74915;BME280;63475;45.140;-75.616;2023-07-13T02:40:42;100258.72;;;21.52;52.95
74915;BME280;63475;45.140;-75.616;2023-07-13T02:42:45;100262.81;;;21.48;53.15
74915;BME280;63475;45.140;-75.616;2023-07-13T02:44:47;100247.94;;;21.44;53.50
74915;BME280;63475;45.140;-75.616;2023-07-13T02:46:51;100246.63;;;21.40;53.74
74915;BME280;63475;45.140;-75.616;2023-07-13T02:48:54;100244.66;;;21.34;53.70
74915;BME280;63475;45.140;-75.616;2023-07-13T02:50:56;100236.91;;;21.31;53.61
74915;BME280;63475;45.140;-75.616;2023-07-13T02:52:59;100231.19;;;21.26;53.83
74915;BME280;63475;45.140;-75.616;2023-07-13T02:55:02;100238.84;;;21.22;53.86
74915;BME280;63475;45.140;-75.616;2023-07-13T02:57:05;100243.13;;;21.17;54.18
74915;BME280;63475;45.140;-75.616;2023-07-13T02:59:08;100249.59;;;21.16;54.17
74915;BME280;63475;45.140;-75.616;2023-07-13T03:01:12;100247.59;;;21.10;54.64
74915;BME280;63475;45.140;-75.616;2023-07-13T03:03:15;100255.31;;;21.06;54.49
74915;BME280;63475;45.140;-75.616;2023-07-13T03:05:17;100258.38;;;21.03;54.78
74915;BME280;63475;45.140;-75.616;2023-07-13T03:07:20;100260.59;;;20.99;54.79
74915;BME280;63475;45.140;-75.616;2023-07-13T03:09:22;100257.41;;;20.96;54.67
74915;BME280;63475;45.140;-75.616;2023-07-13T03:11:25;100256.94;;;20.92;55.24
74915;BME280;63475;45.140;-75.616;2023-07-13T03:13:28;100258.16;;;20.90;55.28
74915;BME280;63475;45.140;-75.616;2023-07-13T03:15:30;100250.59;;;20.85;55.44
74915;BME280;63475;45.140;-75.616;2023-07-13T03:17:33;100258.25;;;20.82;55.75
74915;BME280;63475;45.140;-75.616;2023-07-13T03:19:35;100252.34;;;20.78;55.76
74915;BME280;63475;45.140;-75.616;2023-07-13T03:21:38;100250.19;;;20.74;55.68
74915;BME280;63475;45.140;-75.616;2023-07-13T03:23:41;100253.25;;;20.71;56.14
74915;BME280;63475;45.140;-75.616;2023-07-13T03:25:43;100251.09;;;20.66;56.22
74915;BME280;63475;45.140;-75.616;2023-07-13T03:27:47;100256.91;;;20.63;56.52
74915;BME280;63475;45.140;-75.616;2023-07-13T03:29:49;100248.47;;;20.58;56.56
74915;BME280;63475;45.140;-75.616;2023-07-13T03:31:52;100243.41;;;20.55;56.70
74915;BME280;63475;45.140;-75.616;2023-07-13T03:33:56;100244.78;;;20.51;57.00
74915;BME280;63475;45.140;-75.616;2023-07-13T03:35:59;100244.09;;;20.49;56.88
74915;BME280;63475;45.140;-75.616;2023-07-13T03:38:02;100247.50;;;20.43;57.04
74915;BME280;63475;45.140;-75.616;2023-07-13T03:40:05;100249.78;;;20.39;57.28
74915;BME280;63475;45.140;-75.616;2023-07-13T03:42:11;100250.97;;;20.37;57.49
74915;BME280;63475;45.140;-75.616;2023-07-13T03:44:15;100247.78;;;20.33;57.36
74915;BME280;63475;45.140;-75.616;2023-07-13T03:46:18;100251.69;;;20.30;57.60
74915;BME280;63475;45.140;-75.616;2023-07-13T03:48:21;100246.81;;;20.26;57.86
74915;BME280;63475;45.140;-75.616;2023-07-13T03:50:23;100243.59;;;20.22;57.93
74915;BME280;63475;45.140;-75.616;2023-07-13T03:52:26;100243.78;;;20.21;58.27
74915;BME280;63475;45.140;-75.616;2023-07-13T03:54:29;100244.34;;;20.16;58.38
74915;BME280;63475;45.140;-75.616;2023-07-13T03:56:31;100237.25;;;20.15;58.53
74915;BME280;63475;45.140;-75.616;2023-07-13T03:58:39;100236.75;;;20.12;58.59
74915;BME280;63475;45.140;-75.616;2023-07-13T04:00:42;100237.09;;;20.09;58.72
74915;BME280;63475;45.140;-75.616;2023-07-13T04:02:44;100235.59;;;20.06;58.71
74915;BME280;63475;45.140;-75.616;2023-07-13T04:04:49;100233.25;;;20.03;58.98
74915;BME280;63475;45.140;-75.616;2023-07-13T04:06:52;100216.34;;;20.01;59.18
74915;BME280;63475;45.140;-75.616;2023-07-13T04:08:57;100206.53;;;20.00;59.35
74915;BME280;63475;45.140;-75.616;2023-07-13T04:11:00;100203.16;;;19.98;59.51
74915;BME280;63475;45.140;-75.616;2023-07-13T04:13:03;100198.13;;;19.95;59.64
74915;BME280;63475;45.140;-75.616;2023-07-13T04:15:06;100200.16;;;19.93;59.83
74915;BME280;63475;45.140;-75.616;2023-07-13T04:17:09;100193.41;;;19.89;60.03
74915;BME280;63475;45.140;-75.616;2023-07-13T04:19:13;100196.13;;;19.89;60.14
74915;BME280;63475;45.140;-75.616;2023-07-13T04:21:16;100195.47;;;19.87;60.19
74915;BME280;63475;45.140;-75.616;2023-07-13T04:23:19;100195.47;;;19.87;60.20
74915;BME280;63475;45.140;-75.616;2023-07-13T04:25:21;100202.91;;;19.85;60.52
74915;BME280;63475;45.140;-75.616;2023-07-13T04:27:24;100208.69;;;19.82;60.56
74915;BME280;63475;45.140;-75.616;2023-07-13T04:29:27;100204.28;;;19.81;60.51
74915;BME280;63475;45.140;-75.616;2023-07-13T04:31:30;100207.16;;;19.79;60.55
74915;BME280;63475;45.140;-75.616;2023-07-13T04:33:33;100212.75;;;19.78;60.92
74915;BME280;63475;45.140;-75.616;2023-07-13T04:35:36;100216.47;;;19.77;61.04
74915;BME280;63475;45.140;-75.616;2023-07-13T04:37:39;100211.44;;;19.74;61.51
74915;BME280;63475;45.140;-75.616;2023-07-13T04:39:42;100206.03;;;19.74;61.73
74915;BME280;63475;45.140;-75.616;2023-07-13T04:41:44;100206.38;;;19.71;61.51
74915;BME280;63475;45.140;-75.616;2023-07-13T04:43:47;100210.09;;;19.70;61.37
74915;BME280;63475;45.140;-75.616;2023-07-13T04:45:51;100205.03;;;19.66;61.92
74915;BME280;63475;45.140;-75.616;2023-07-13T04:47:54;100210.44;;;19.66;61.72
74915;BME280;63475;45.140;-75.616;2023-07-13T04:49:57;100203.34;;;19.65;61.71
74915;BME280;63475;45.140;-75.616;2023-07-13T04:51:59;100202.66;;;19.63;61.67
74915;BME280;63475;45.140;-75.616;2023-07-13T04:54:02;100198.28;;;19.62;61.66
74915;BME280;63475;45.140;-75.616;2023-07-13T04:56:05;100186.78;;;19.60;61.70
74915;BME280;63475;45.140;-75.616;2023-07-13T04:58:07;100185.94;;;19.60;61.61
74915;BME280;63475;45.140;-75.616;2023-07-13T05:00:10;100186.13;;;19.58;61.58
74915;BME280;63475;45.140;-75.616;2023-07-13T05:02:13;100180.03;;;19.56;61.92
74915;BME280;63475;45.140;-75.616;2023-07-13T05:04:16;100180.22;;;19.55;61.88
74915;BME280;63475;45.140;-75.616;2023-07-13T05:06:19;100178.69;;;19.52;62.03
74915;BME280;63475;45.140;-75.616;2023-07-13T05:08:21;100174.31;;;19.51;62.44
74915;BME280;63475;45.140;-75.616;2023-07-13T05:10:24;100171.81;;;19.50;62.63
74915;BME280;63475;45.140;-75.616;2023-07-13T05:12:26;100163.88;;;19.48;62.82
74915;BME280;63475;45.140;-75.616;2023-07-13T05:14:29;100162.19;;;19.47;63.24
74915;BME280;63475;45.140;-75.616;2023-07-13T05:16:31;100164.69;;;19.49;63.50
74915;BME280;63475;45.140;-75.616;2023-07-13T05:18:34;100155.75;;;19.48;63.20
74915;BME280;63475;45.140;-75.616;2023-07-13T05:20:39;100162.19;;;19.47;63.25
74915;BME280;63475;45.140;-75.616;2023-07-13T05:22:42;100159.66;;;19.46;62.99
74915;BME280;63475;45.140;-75.616;2023-07-13T05:24:45;100158.44;;;19.48;63.06
74915;BME280;63475;45.140;-75.616;2023-07-13T05:26:47;100158.81;;;19.45;63.92
74915;BME280;63475;45.140;-75.616;2023-07-13T05:28:50;100155.44;;;19.43;63.46
74915;BME280;63475;45.140;-75.616;2023-07-13T05:30:53;100153.75;;;19.42;63.84
74915;BME280;63475;45.140;-75.616;2023-07-13T05:32:59;100152.41;;;19.38;63.47
74915;BME280;63475;45.140;-75.616;2023-07-13T05:35:02;100155.94;;;19.39;64.19
74915;BME280;63475;45.140;-75.616;2023-07-13T05:37:04;100150.53;;;19.39;63.82
74915;BME280;63475;45.140;-75.616;2023-07-13T05:39:07;100150.72;;;19.37;64.31
74915;BME280;63475;45.140;-75.616;2023-07-13T05:41:10;100145.31;;;19.37;64.48
74915;BME280;63475;45.140;-75.616;2023-07-13T05:43:13;100141.75;;;19.37;64.51
74915;BME280;63475;45.140;-75.616;2023-07-13T05:45:16;100148.00;;;19.37;64.48
74915;BME280;63475;45.140;-75.616;2023-07-13T05:47:18;100144.63;;;19.35;63.92
74915;BME280;63475;45.140;-75.616;2023-07-13T05:49:21;100144.63;;;19.35;64.95
74915;BME280;63475;45.140;-75.616;2023-07-13T05:51:24;100145.81;;;19.32;64.64
74915;BME280;63475;45.140;-75.616;2023-07-13T05:53:27;100148.03;;;19.29;65.22
74915;BME280;63475;45.140;-75.616;2023-07-13T05:55:29;100143.69;;;19.28;64.99
74915;BME280;63475;45.140;-75.616;2023-07-13T05:57:32;100141.31;;;19.25;65.88
74915;BME280;63475;45.140;-75.616;2023-07-13T05:59:35;100145.03;;;19.24;66.37
74915;BME280;63475;45.140;-75.616;2023-07-13T06:01:39;100149.13;;;19.20;65.87
74915;BME280;63475;45.140;-75.616;2023-07-13T06:03:41;100142.03;;;19.19;66.64
74915;BME280;63475;45.140;-75.616;2023-07-13T06:05:44;100142.38;;;19.16;66.63
74915;BME280;63475;45.140;-75.616;2023-07-13T06:07:46;100142.88;;;19.11;66.38
74915;BME280;63475;45.140;-75.616;2023-07-13T06:09:49;100134.09;;;19.09;66.07
74915;BME280;63475;45.140;-75.616;2023-07-13T06:11:51;100127.38;;;19.05;65.83
74915;BME280;63475;45.140;-75.616;2023-07-13T06:13:54;100116.75;;;19.04;65.67
74915;BME280;63475;45.140;-75.616;2023-07-13T06:15:57;100116.41;;;18.98;65.77
74915;BME280;63475;45.140;-75.616;2023-07-13T06:17:59;100104.09;;;18.96;65.55
74915;BME280;63475;45.140;-75.616;2023-07-13T06:20:02;100095.66;;;18.91;65.72
74915;BME280;63475;45.140;-75.616;2023-07-13T06:22:05;100091.44;;;18.88;66.28
74915;BME280;63475;45.140;-75.616;2023-07-13T06:24:07;100093.63;;;18.85;66.47
74915;BME280;63475;45.140;-75.616;2023-07-13T06:26:10;100089.44;;;18.82;66.31
74915;BME280;63475;45.140;-75.616;2023-07-13T06:28:13;100092.47;;;18.79;66.32
74915;BME280;63475;45.140;-75.616;2023-07-13T06:30:15;100095.53;;;18.76;66.01
74915;BME280;63475;45.140;-75.616;2023-07-13T06:32:18;100097.56;;;18.74;65.82
74915;BME280;63475;45.140;-75.616;2023-07-13T06:34:21;100095.19;;;18.71;65.83
74915;BME280;63475;45.140;-75.616;2023-07-13T06:36:23;100095.53;;;18.68;66.46
74915;BME280;63475;45.140;-75.616;2023-07-13T06:38:26;100096.56;;;18.67;66.20
74915;BME280;63475;45.140;-75.616;2023-07-13T06:40:28;100112.09;;;18.65;66.77
74915;BME280;63475;45.140;-75.616;2023-07-13T06:42:32;100117.84;;;18.62;66.60
74915;BME280;63475;45.140;-75.616;2023-07-13T06:44:35;100124.25;;;18.61;66.28
74915;BME280;63475;45.140;-75.616;2023-07-13T06:46:37;100119.91;;;18.60;66.70
74915;BME280;63475;45.140;-75.616;2023-07-13T06:48:40;100120.06;;;18.58;66.88
74915;BME280;63475;45.140;-75.616;2023-07-13T06:50:43;100114.84;;;18.57;66.14
74915;BME280;63475;45.140;-75.616;2023-07-13T06:52:46;100109.44;;;18.57;66.81
74915;BME280;63475;45.140;-75.616;2023-07-13T06:54:48;100109.78;;;18.54;66.38
74915;BME280;63475;45.140;-75.616;2023-07-13T06:56:51;100104.53;;;18.52;66.38
74915;BME280;63475;45.140;-75.616;2023-07-13T06:58:53;100096.59;;;18.51;66.75
74915;BME280;63475;45.140;-75.616;2023-07-13T07:00:56;100105.22;;;18.46;66.61
74915;BME280;63475;45.140;-75.616;2023-07-13T07:02:58;100098.13;;;18.45;66.42
74915;BME280;63475;45.140;-75.616;2023-07-13T07:05:01;100093.25;;;18.41;66.29
74915;BME280;63475;45.140;-75.616;2023-07-13T07:07:04;100090.91;;;18.38;66.79
74915;BME280;63475;45.140;-75.616;2023-07-13T07:09:07;100093.94;;;18.35;66.96
74915;BME280;63475;45.140;-75.616;2023-07-13T07:11:13;100101.53;;;18.31;66.76
74915;BME280;63475;45.140;-75.616;2023-07-13T07:13:16;100092.09;;;18.27;66.66
74915;BME280;63475;45.140;-75.616;2023-07-13T07:15:18;100094.13;;;18.25;66.99
74915;BME280;63475;45.140;-75.616;2023-07-13T07:17:21;100090.75;;;18.23;67.11
74915;BME280;63475;45.140;-75.616;2023-07-13T07:19:27;100094.63;;;18.20;67.08
74915;BME280;63475;45.140;-75.616;2023-07-13T07:21:29;100081.47;;;18.17;67.09
74915;BME280;63475;45.140;-75.616;2023-07-13T07:23:33;100077.28;;;18.15;66.90
74915;BME280;63475;45.140;-75.616;2023-07-13T07:25:35;100083.69;;;18.14;66.95
74915;BME280;63475;45.140;-75.616;2023-07-13T07:27:44;100081.31;;;18.11;67.09
74915;BME280;63475;45.140;-75.616;2023-07-13T07:29:49;100084.19;;;18.09;66.76
74915;BME280;63475;45.140;-75.616;2023-07-13T07:32:12;100093.63;;;18.05;66.74
74915;BME280;63475;45.140;-75.616;2023-07-13T07:34:35;100089.25;;;18.04;66.96
74915;BME280;63475;45.140;-75.616;2023-07-13T07:36:37;100094.81;;;18.03;66.88
74915;BME280;63475;45.140;-75.616;2023-07-13T07:38:43;100079.78;;;18.00;67.26
74915;BME280;63475;45.140;-75.616;2023-07-13T07:40:46;100088.03;;;17.98;67.24
74915;BME280;63475;45.140;-75.616;2023-07-13T07:42:51;100083.81;;;17.96;67.22
74915;BME280;63475;45.140;-75.616;2023-07-13T07:44:54;100085.84;;;17.94;66.93
74915;BME280;63475;45.140;-75.616;2023-07-13T07:46:56;100087.69;;;17.93;67.00
74915;BME280;63475;45.140;-75.616;2023-07-13T07:48:59;100082.50;;;17.92;67.73
74915;BME280;63475;45.140;-75.616;2023-07-13T07:51:02;100077.44;;;17.89;67.28
74915;BME280;63475;45.140;-75.616;2023-07-13T07:53:06;100076.41;;;17.90;66.82
74915;BME280;63475;45.140;-75.616;2023-07-13T07:55:12;100069.31;;;17.89;66.86
74915;BME280;63475;45.140;-75.616;2023-07-13T07:57:17;100057.69;;;17.88;66.53
74915;BME280;63475;45.140;-75.616;2023-07-13T07:59:40;100041.66;;;17.87;66.65
74915;BME280;63475;45.140;-75.616;2023-07-13T08:01:45;100031.88;;;17.86;66.59
74915;BME280;63475;45.140;-75.616;2023-07-13T08:03:52;100034.59;;;17.86;66.28
74915;BME280;63475;45.140;-75.616;2023-07-13T08:05:58;100037.44;;;17.84;66.30
74915;BME280;63475;45.140;-75.616;2023-07-13T08:08:20;100042.16;;;17.82;66.49
74915;BME280;63475;45.140;-75.616;2023-07-13T08:10:23;100046.03;;;17.80;66.19
74915;BME280;63475;45.140;-75.616;2023-07-13T08:12:26;100037.28;;;17.78;66.06
74915;BME280;63475;45.140;-75.616;2023-07-13T08:14:31;100033.06;;;17.75;66.59
74915;BME280;63475;45.140;-75.616;2023-07-13T08:16:53;100021.41;;;17.75;66.17
74915;BME280;63475;45.140;-75.616;2023-07-13T08:18:55;100022.25;;;17.75;66.42
74915;BME280;63475;45.140;-75.616;2023-07-13T08:20:58;100024.13;;;17.75;65.95
74915;BME280;63475;45.140;-75.616;2023-07-13T08:23:00;100021.41;;;17.75;66.05
74915;BME280;63475;45.140;-75.616;2023-07-13T08:25:03;100030.53;;;17.74;66.08
74915;BME280;63475;45.140;-75.616;2023-07-13T08:27:06;100031.53;;;17.73;65.81
74915;BME280;63475;45.140;-75.616;2023-07-13T08:29:09;100037.47;;;17.68;66.03
74915;BME280;63475;45.140;-75.616;2023-07-13T08:31:11;100034.94;;;17.67;65.86
74915;BME280;63475;45.140;-75.616;2023-07-13T08:33:18;100046.91;;;17.64;65.56
74915;BME280;63475;45.140;-75.616;2023-07-13T08:35:21;100038.28;;;17.60;65.79
74915;BME280;63475;45.140;-75.616;2023-07-13T08:37:24;100033.91;;;17.59;65.92
74915;BME280;63475;45.140;-75.616;2023-07-13T08:39:26;100026.16;;;17.56;66.28
74915;BME280;63475;45.140;-75.616;2023-07-13T08:41:30;100018.06;;;17.56;67.03
74915;BME280;63475;45.140;-75.616;2023-07-13T08:43:36;100021.09;;;17.53;67.53
74915;BME280;63475;45.140;-75.616;2023-07-13T08:50:16;100024.63;;;17.38;67.86
74915;BME280;63475;45.140;-75.616;2023-07-13T08:52:31;100034.22;;;17.40;67.74
74915;BME280;63475;45.140;-75.616;2023-07-13T08:54:47;100040.78;;;17.38;67.64
74915;BME280;63475;45.140;-75.616;2023-07-13T08:56:53;100042.97;;;17.34;67.79
74915;BME280;63475;45.140;-75.616;2023-07-13T08:59:04;100040.59;;;17.31;68.43
74915;BME280;63475;45.140;-75.616;2023-07-13T09:03:42;100037.56;;;17.26;67.36
74915;BME280;63475;45.140;-75.616;2023-07-13T09:05:59;100026.78;;;17.26;67.69
74915;BME280;63475;45.140;-75.616;2023-07-13T09:08:27;100035.22;;;17.23;67.23
74915;BME280;63475;45.140;-75.616;2023-07-13T09:10:43;100034.53;;;17.21;67.50
74915;BME280;63475;45.140;-75.616;2023-07-13T09:15:30;100027.78;;;17.17;67.92
74915;BME280;63475;45.140;-75.616;2023-07-13T09:17:41;100016.34;;;17.15;68.13
74915;BME280;63475;45.140;-75.616;2023-07-13T09:19:57;100024.41;;;17.15;67.97
74915;BME280;63475;45.140;-75.616;2023-07-13T09:22:11;100019.88;;;17.15;68.25
74915;BME280;63475;45.140;-75.616;2023-07-13T09:26:45;100024.56;;;17.13;68.39
74915;BME280;63475;45.140;-75.616;2023-07-13T09:29:13;100018.34;;;17.13;68.39
74915;BME280;63475;45.140;-75.616;2023-07-13T09:33:27;100023.06;;;17.11;68.37
74915;BME280;63475;45.140;-75.616;2023-07-13T09:35:31;100015.81;;;17.11;68.88
74915;BME280;63475;45.140;-75.616;2023-07-13T09:37:35;100023.06;;;17.11;68.64
74915;BME280;63475;45.140;-75.616;2023-07-13T09:39:40;100017.66;;;17.11;68.98
74915;BME280;63475;45.140;-75.616;2023-07-13T09:42:29;100017.50;;;17.12;68.84
74915;BME280;63475;45.140;-75.616;2023-07-13T09:44:15;100010.25;;;17.13;68.70
74915;BME280;63475;45.140;-75.616;2023-07-13T09:46:21;100008.56;;;17.12;68.93
74915;BME280;63475;45.140;-75.616;2023-07-13T09:48:24;100012.28;;;17.11;68.75
74915;BME280;63475;45.140;-75.616;2023-07-13T09:50:27;99995.38;;;17.09;68.96
74915;BME280;63475;45.140;-75.616;2023-07-13T09:52:43;100000.66;;;17.10;69.43
74915;BME280;63475;45.140;-75.616;2023-07-13T09:54:51;100004.47;;;17.08;69.31
74915;BME280;63475;45.140;-75.616;2023-07-13T09:56:57;100004.47;;;17.08;69.53
74915;BME280;63475;45.140;-75.616;2023-07-13T09:59:00;100005.50;;;17.07;69.60
74915;BME280;63475;45.140;-75.616;2023-07-13T10:01:03;99997.72;;;17.04;69.54
74915;BME280;63475;45.140;-75.616;2023-07-13T10:03:19;99996.03;;;17.03;69.87
74915;BME280;63475;45.140;-75.616;2023-07-13T10:05:22;99995.41;;;17.01;70.04
74915;BME280;63475;45.140;-75.616;2023-07-13T10:07:27;99992.03;;;16.99;70.35
74915;BME280;63475;45.140;-75.616;2023-07-13T10:09:31;99994.03;;;16.97;70.04
74915;BME280;63475;45.140;-75.616;2023-07-13T10:11:35;99991.34;;;16.97;70.38
74915;BME280;63475;45.140;-75.616;2023-07-13T10:13:57;100000.59;;;16.94;70.68
74915;BME280;63475;45.140;-75.616;2023-07-13T10:16:03;99993.50;;;16.93;70.83
74915;BME280;63475;45.140;-75.616;2023-07-13T10:18:07;99991.50;;;16.95;71.27
74915;BME280;63475;45.140;-75.616;2023-07-13T10:20:14;99993.69;;;16.91;71.04
74915;BME280;63475;45.140;-75.616;2023-07-13T10:22:32;99992.66;;;16.92;71.42
74915;BME280;63475;45.140;-75.616;2023-07-13T10:24:39;99992.66;;;16.92;71.58
74915;BME280;63475;45.140;-75.616;2023-07-13T10:29:11;99987.28;;;16.92;71.71
74915;BME280;63475;45.140;-75.616;2023-07-13T10:31:16;99990.81;;;16.93;71.54
74915;BME280;63475;45.140;-75.616;2023-07-13T10:33:20;99983.38;;;16.87;71.49
74915;BME280;63475;45.140;-75.616;2023-07-13T10:35:23;99985.59;;;16.91;72.01
74915;BME280;63475;45.140;-75.616;2023-07-13T10:37:37;99985.59;;;16.91;71.89
74915;BME280;63475;45.140;-75.616;2023-07-13T10:39:43;99997.22;;;16.92;72.18
74915;BME280;63475;45.140;-75.616;2023-07-13T10:41:52;100003.28;;;16.94;72.22
74915;BME280;63475;45.140;-75.616;2023-07-13T10:43:56;99996.03;;;16.94;71.77
74915;BME280;63475;45.140;-75.616;2023-07-13T10:46:00;99996.03;;;16.94;71.83
74915;BME280;63475;45.140;-75.616;2023-07-13T10:48:05;100000.09;;;16.99;71.60
74915;BME280;63475;45.140;-75.616;2023-07-13T10:50:22;99988.47;;;16.98;71.63
74915;BME280;63475;45.140;-75.616;2023-07-13T10:52:48;99968.44;;;17.01;71.49
74915;BME280;63475;45.140;-75.616;2023-07-13T10:54:52;99963.06;;;17.01;71.57